Aérodrome :
LOGIN :

S'inscrire | Disclaimer

   EN    FR    IT 

 










Légende :    VFR   VFR Marginal   IFR   IFR Intensif   IFR Très Intensif
Visi : 
Plafond : 
>= 8 km
>= 3000ft
5 à 8 km
1000 à 3000 ft
1500m à 5 km
500 à 1000 ft
800 à 1500m
200 à 500 ft
< 800m
< 200 ft
Symboles :   Orages  Brouillard  Fortes neiges  Fortes précipitations  Vent > 20 kt
SIGMETs :   Divers  Orages  Givrage  Turbulence  Onde Orograph.  Cendres Volcan.






- Altitude de l'aérodrome : 526 ft
- Code IATA : LTN


EGGW - London Luton

DERNIER METAR :
  • 050820Z AUTO 19009KT 140V220 9999 BKN013 17/13 Q1007

METARs EXPIRÉS :
  • 050750Z AUTO 19010KT 140V230 9999 FEW014 17/12 Q1008
  • 050720Z AUTO 19008KT 150V220 9999 FEW009 16/13 Q1008
  • 050650Z AUTO 19007KT 140V220 9000 BKN003 15/13 Q1008
  • 050620Z 20007KT 160V230 7000 3000E OVC003 14/13 Q1008
  • 050550Z AUTO 19005KT 150V230 9000 BKN004 13/12 Q1008

TAF AMD TAF EGGW
Valide du 05 à 06h jusqu'au 06 à 06h UTC


050557Z 0506/0606 19010KT 9999 SCT030
PROB30 0506/0508 8000 BKN004
PROB30
TEMPO 0508/0510 BKN014
PROB30
TEMPO 0510/0513 9000 -SHRA
PROB30
TEMPO 0512/0518 18016G26KT
TEMPO 0513/0523 7000 RA SHRA BKN012
PROB30
TEMPO 0515/0522 4000 +SHRA BKN008
PROB30
TEMPO 0522/0606 BKN007
PROB30
TEMPO 0523/0606 7000 SHRA
BECMG 0603/0606 25012KT
ATIS : +44 1582 395 204



MET'MAP, la Météo Aéronautique d'un coup d'oeil ! - Copyright ORBIFLY Décembre 2007 - Disclaimer

ORBIFLY MET'MAP TEAM :

Programmation & Développement : Alexandra Zaïnal
Sur une idée originale de : Baudouin d'Aumeries
Assistance à la programmation : Marc-Olivier Méhu
Soutien technique & logistique : Manuel Goepfert

Contact : metmap@orbifly.com




SOURCES & CREDITS :

   NOAA